sensor_id;sensor_type;location;lat;lon;timestamp;temperature;humidity
18882;DHT22;9573;50.948;11.600;2024-01-16T00:00:05;2.10;99.90
18882;DHT22;9573;50.948;11.600;2024-01-16T00:02:34;2.10;99.90
18882;DHT22;9573;50.948;11.600;2024-01-16T00:05:01;2.10;99.90
18882;DHT22;9573;50.948;11.600;2024-01-16T00:07:31;2.10;99.90
18882;DHT22;9573;50.948;11.600;2024-01-16T00:10:00;2.10;99.90
18882;DHT22;9573;50.948;11.600;2024-01-16T00:12:27;2.20;99.90
18882;DHT22;9573;50.948;11.600;2024-01-16T00:14:55;2.20;99.90
18882;DHT22;9573;50.948;11.600;2024-01-16T00:17:22;2.20;99.90
18882;DHT22;9573;50.948;11.600;2024-01-16T00:19:49;2.10;99.90
18882;DHT22;9573;50.948;11.600;2024-01-16T00:22:16;2.00;99.90
18882;DHT22;9573;50.948;11.600;2024-01-16T00:24:44;1.90;99.90
18882;DHT22;9573;50.948;11.600;2024-01-16T00:27:12;2.00;99.90
18882;DHT22;9573;50.948;11.600;2024-01-16T00:29:39;2.00;99.90
18882;DHT22;9573;50.948;11.600;2024-01-16T00:32:06;2.00;99.90
18882;DHT22;9573;50.948;11.600;2024-01-16T00:34:34;2.10;99.90
18882;DHT22;9573;50.948;11.600;2024-01-16T00:37:01;2.20;99.90
18882;DHT22;9573;50.948;11.600;2024-01-16T00:39:28;2.20;99.90
18882;DHT22;9573;50.948;11.600;2024-01-16T00:41:56;2.20;99.90
18882;DHT22;9573;50.948;11.600;2024-01-16T00:44:23;2.30;99.90
18882;DHT22;9573;50.948;11.600;2024-01-16T00:46:51;2.30;99.90
18882;DHT22;9573;50.948;11.600;2024-01-16T00:49:18;2.30;99.90
18882;DHT22;9573;50.948;11.600;2024-01-16T00:51:45;2.30;99.90
18882;DHT22;9573;50.948;11.600;2024-01-16T00:54:12;2.30;99.90
18882;DHT22;9573;50.948;11.600;2024-01-16T00:56:41;2.30;99.90
18882;DHT22;9573;50.948;11.600;2024-01-16T00:59:10;2.30;99.90
18882;DHT22;9573;50.948;11.600;2024-01-16T01:01:37;2.30;99.90
18882;DHT22;9573;50.948;11.600;2024-01-16T01:04:04;2.30;99.90
18882;DHT22;9573;50.948;11.600;2024-01-16T01:06:32;2.30;99.90
18882;DHT22;9573;50.948;11.600;2024-01-16T01:08:59;2.40;99.90
18882;DHT22;9573;50.948;11.600;2024-01-16T01:11:26;2.40;99.90
18882;DHT22;9573;50.948;11.600;2024-01-16T01:13:53;2.40;99.90
18882;DHT22;9573;50.948;11.600;2024-01-16T01:16:22;2.40;99.90
18882;DHT22;9573;50.948;11.600;2024-01-16T01:18:49;2.40;99.90
18882;DHT22;9573;50.948;11.600;2024-01-16T01:21:18;2.40;99.90
18882;DHT22;9573;50.948;11.600;2024-01-16T01:23:45;2.40;99.90
18882;DHT22;9573;50.948;11.600;2024-01-16T01:26:12;2.40;99.90
18882;DHT22;9573;50.948;11.600;2024-01-16T01:28:40;2.40;99.90
18882;DHT22;9573;50.948;11.600;2024-01-16T01:31:08;2.40;99.90
18882;DHT22;9573;50.948;11.600;2024-01-16T01:33:37;2.50;99.90
18882;DHT22;9573;50.948;11.600;2024-01-16T01:36:04;2.50;99.90
18882;DHT22;9573;50.948;11.600;2024-01-16T01:38:32;2.50;99.90
18882;DHT22;9573;50.948;11.600;2024-01-16T01:40:59;2.50;99.90
18882;DHT22;9573;50.948;11.600;2024-01-16T01:43:26;2.50;99.90
18882;DHT22;9573;50.948;11.600;2024-01-16T01:46:09;2.50;99.90
18882;DHT22;9573;50.948;11.600;2024-01-16T01:48:40;2.50;99.90
18882;DHT22;9573;50.948;11.600;2024-01-16T01:51:08;2.50;99.90
18882;DHT22;9573;50.948;11.600;2024-01-16T01:53:36;2.50;99.90
18882;DHT22;9573;50.948;11.600;2024-01-16T01:56:06;2.40;99.90
18882;DHT22;9573;50.948;11.600;2024-01-16T01:58:34;2.40;99.90
18882;DHT22;9573;50.948;11.600;2024-01-16T02:01:04;2.40;99.90
18882;DHT22;9573;50.948;11.600;2024-01-16T02:03:38;2.30;99.90
18882;DHT22;9573;50.948;11.600;2024-01-16T02:06:08;2.20;99.90
18882;DHT22;9573;50.948;11.600;2024-01-16T02:08:36;2.20;99.90
18882;DHT22;9573;50.948;11.600;2024-01-16T02:11:03;2.30;99.90
18882;DHT22;9573;50.948;11.600;2024-01-16T02:13:31;2.30;99.90
18882;DHT22;9573;50.948;11.600;2024-01-16T02:15:58;2.30;99.90
18882;DHT22;9573;50.948;11.600;2024-01-16T02:18:26;2.40;99.90
18882;DHT22;9573;50.948;11.600;2024-01-16T02:20:59;2.50;99.90
18882;DHT22;9573;50.948;11.600;2024-01-16T02:23:29;2.50;99.90
18882;DHT22;9573;50.948;11.600;2024-01-16T02:25:56;2.50;99.90
18882;DHT22;9573;50.948;11.600;2024-01-16T02:28:24;2.50;99.90
18882;DHT22;9573;50.948;11.600;2024-01-16T02:30:51;2.60;99.90
18882;DHT22;9573;50.948;11.600;2024-01-16T02:33:18;2.60;99.90
18882;DHT22;9573;50.948;11.600;2024-01-16T02:35:45;2.50;99.90
18882;DHT22;9573;50.948;11.600;2024-01-16T02:38:12;2.50;99.90
18882;DHT22;9573;50.948;11.600;2024-01-16T02:40:41;2.60;99.90
18882;DHT22;9573;50.948;11.600;2024-01-16T02:43:08;2.50;99.90
18882;DHT22;9573;50.948;11.600;2024-01-16T02:45:35;2.60;99.90
18882;DHT22;9573;50.948;11.600;2024-01-16T02:48:03;2.50;99.90
18882;DHT22;9573;50.948;11.600;2024-01-16T02:50:30;2.50;99.90
18882;DHT22;9573;50.948;11.600;2024-01-16T02:52:57;2.50;99.90
18882;DHT22;9573;50.948;11.600;2024-01-16T02:55:24;2.50;99.90
18882;DHT22;9573;50.948;11.600;2024-01-16T02:57:52;2.50;99.90
18882;DHT22;9573;50.948;11.600;2024-01-16T03:00:20;2.50;99.90
18882;DHT22;9573;50.948;11.600;2024-01-16T03:02:48;2.40;99.90
18882;DHT22;9573;50.948;11.600;2024-01-16T03:05:15;2.40;99.90
18882;DHT22;9573;50.948;11.600;2024-01-16T03:07:42;2.20;99.90
18882;DHT22;9573;50.948;11.600;2024-01-16T03:10:09;1.90;99.90
18882;DHT22;9573;50.948;11.600;2024-01-16T03:12:37;1.70;99.90
18882;DHT22;9573;50.948;11.600;2024-01-16T03:15:06;1.70;99.90
18882;DHT22;9573;50.948;11.600;2024-01-16T03:17:33;1.70;99.90
18882;DHT22;9573;50.948;11.600;2024-01-16T03:20:01;1.90;99.90
18882;DHT22;9573;50.948;11.600;2024-01-16T03:22:29;2.00;99.90
18882;DHT22;9573;50.948;11.600;2024-01-16T03:24:56;2.00;99.90
18882;DHT22;9573;50.948;11.600;2024-01-16T03:27:23;2.10;99.90
18882;DHT22;9573;50.948;11.600;2024-01-16T03:29:50;2.10;99.90
18882;DHT22;9573;50.948;11.600;2024-01-16T03:32:19;2.00;99.90
18882;DHT22;9573;50.948;11.600;2024-01-16T03:34:47;1.90;99.90
18882;DHT22;9573;50.948;11.600;2024-01-16T03:37:14;2.10;99.90
18882;DHT22;9573;50.948;11.600;2024-01-16T03:39:41;2.20;99.90
18882;DHT22;9573;50.948;11.600;2024-01-16T03:42:09;2.20;99.90
18882;DHT22;9573;50.948;11.600;2024-01-16T03:44:38;2.30;99.90
18882;DHT22;9573;50.948;11.600;2024-01-16T03:47:06;2.30;99.90
18882;DHT22;9573;50.948;11.600;2024-01-16T03:49:34;2.40;99.90
18882;DHT22;9573;50.948;11.600;2024-01-16T03:52:02;2.40;99.90
18882;DHT22;9573;50.948;11.600;2024-01-16T03:54:29;2.40;99.90
18882;DHT22;9573;50.948;11.600;2024-01-16T03:56:56;2.40;99.90
18882;DHT22;9573;50.948;11.600;2024-01-16T03:59:23;2.40;99.90
18882;DHT22;9573;50.948;11.600;2024-01-16T04:01:50;2.40;99.90
18882;DHT22;9573;50.948;11.600;2024-01-16T04:04:18;2.40;99.90
18882;DHT22;9573;50.948;11.600;2024-01-16T04:06:47;2.40;99.90
18882;DHT22;9573;50.948;11.600;2024-01-16T04:09:14;2.40;99.90
18882;DHT22;9573;50.948;11.600;2024-01-16T04:11:41;2.30;99.90
18882;DHT22;9573;50.948;11.600;2024-01-16T04:14:08;2.30;99.90
18882;DHT22;9573;50.948;11.600;2024-01-16T04:16:36;2.30;99.90
18882;DHT22;9573;50.948;11.600;2024-01-16T04:19:03;2.20;99.90
18882;DHT22;9573;50.948;11.600;2024-01-16T04:21:30;2.00;99.90
18882;DHT22;9573;50.948;11.600;2024-01-16T04:23:58;1.80;99.90
18882;DHT22;9573;50.948;11.600;2024-01-16T04:26:25;1.70;99.90
18882;DHT22;9573;50.948;11.600;2024-01-16T04:28:52;1.50;99.90
18882;DHT22;9573;50.948;11.600;2024-01-16T04:31:19;1.40;99.90
18882;DHT22;9573;50.948;11.600;2024-01-16T04:33:47;1.30;99.90
18882;DHT22;9573;50.948;11.600;2024-01-16T04:36:15;1.20;99.90
18882;DHT22;9573;50.948;11.600;2024-01-16T04:38:42;1.20;99.90
18882;DHT22;9573;50.948;11.600;2024-01-16T04:41:10;1.10;99.90
18882;DHT22;9573;50.948;11.600;2024-01-16T04:43:37;1.10;99.90
18882;DHT22;9573;50.948;11.600;2024-01-16T04:46:04;1.10;99.90
18882;DHT22;9573;50.948;11.600;2024-01-16T04:48:31;1.20;99.90
18882;DHT22;9573;50.948;11.600;2024-01-16T04:50:58;1.30;99.90
18882;DHT22;9573;50.948;11.600;2024-01-16T04:53:26;1.40;99.90
18882;DHT22;9573;50.948;11.600;2024-01-16T04:55:53;1.30;99.90
18882;DHT22;9573;50.948;11.600;2024-01-16T04:58:21;1.20;99.90
18882;DHT22;9573;50.948;11.600;2024-01-16T05:00:48;1.10;99.90
18882;DHT22;9573;50.948;11.600;2024-01-16T05:03:15;1.00;99.90
18882;DHT22;9573;50.948;11.600;2024-01-16T05:05:43;0.90;99.90
18882;DHT22;9573;50.948;11.600;2024-01-16T05:08:10;0.80;99.90
18882;DHT22;9573;50.948;11.600;2024-01-16T05:10:37;0.80;99.90
18882;DHT22;9573;50.948;11.600;2024-01-16T05:13:04;0.70;99.90
18882;DHT22;9573;50.948;11.600;2024-01-16T05:15:32;0.60;99.90
18882;DHT22;9573;50.948;11.600;2024-01-16T05:18:00;0.60;99.90
18882;DHT22;9573;50.948;11.600;2024-01-16T05:20:27;0.50;99.90
18882;DHT22;9573;50.948;11.600;2024-01-16T05:22:54;0.40;99.90
18882;DHT22;9573;50.948;11.600;2024-01-16T05:25:22;0.30;99.90
18882;DHT22;9573;50.948;11.600;2024-01-16T05:27:49;0.20;99.90
18882;DHT22;9573;50.948;11.600;2024-01-16T05:30:16;0.20;99.90
18882;DHT22;9573;50.948;11.600;2024-01-16T05:32:45;0.20;99.90
18882;DHT22;9573;50.948;11.600;2024-01-16T05:35:12;0.30;99.90
18882;DHT22;9573;50.948;11.600;2024-01-16T05:37:39;0.20;99.90
18882;DHT22;9573;50.948;11.600;2024-01-16T05:40:07;0.30;99.90
18882;DHT22;9573;50.948;11.600;2024-01-16T05:42:35;0.20;99.90
18882;DHT22;9573;50.948;11.600;2024-01-16T05:45:03;0.10;99.90
18882;DHT22;9573;50.948;11.600;2024-01-16T05:47:31;0.10;99.90
18882;DHT22;9573;50.948;11.600;2024-01-16T05:50:00;0.10;99.90
18882;DHT22;9573;50.948;11.600;2024-01-16T05:52:27;0.10;99.90
18882;DHT22;9573;50.948;11.600;2024-01-16T05:54:54;0.10;99.90
18882;DHT22;9573;50.948;11.600;2024-01-16T05:57:23;0.20;99.90
18882;DHT22;9573;50.948;11.600;2024-01-16T05:59:50;0.10;99.90
18882;DHT22;9573;50.948;11.600;2024-01-16T06:02:18;0.10;99.90
18882;DHT22;9573;50.948;11.600;2024-01-16T06:04:45;0.20;99.90
18882;DHT22;9573;50.948;11.600;2024-01-16T06:07:14;0.30;99.90
18882;DHT22;9573;50.948;11.600;2024-01-16T06:09:41;0.50;99.90
18882;DHT22;9573;50.948;11.600;2024-01-16T06:12:08;0.70;99.90
18882;DHT22;9573;50.948;11.600;2024-01-16T06:14:38;0.80;99.90
18882;DHT22;9573;50.948;11.600;2024-01-16T06:17:05;0.90;99.90
18882;DHT22;9573;50.948;11.600;2024-01-16T06:19:33;1.90;99.90
18882;DHT22;9573;50.948;11.600;2024-01-16T06:22:00;1.00;99.90
18882;DHT22;9573;50.948;11.600;2024-01-16T06:24:28;0.80;99.90
18882;DHT22;9573;50.948;11.600;2024-01-16T06:27:02;0.70;99.90
18882;DHT22;9573;50.948;11.600;2024-01-16T06:29:31;0.50;99.90
18882;DHT22;9573;50.948;11.600;2024-01-16T06:31:58;0.40;99.90
18882;DHT22;9573;50.948;11.600;2024-01-16T06:34:25;0.20;99.90
18882;DHT22;9573;50.948;11.600;2024-01-16T06:36:53;0.20;99.90
18882;DHT22;9573;50.948;11.600;2024-01-16T06:39:20;0.10;99.90
18882;DHT22;9573;50.948;11.600;2024-01-16T06:41:48;0.10;99.90
18882;DHT22;9573;50.948;11.600;2024-01-16T06:44:15;0.00;99.90
18882;DHT22;9573;50.948;11.600;2024-01-16T06:46:43;-0.10;99.90
18882;DHT22;9573;50.948;11.600;2024-01-16T06:49:10;-0.10;99.90
18882;DHT22;9573;50.948;11.600;2024-01-16T06:51:37;-0.10;99.90
18882;DHT22;9573;50.948;11.600;2024-01-16T06:54:04;-0.30;99.90
18882;DHT22;9573;50.948;11.600;2024-01-16T06:56:32;-0.30;99.90
18882;DHT22;9573;50.948;11.600;2024-01-16T06:59:00;-0.30;99.90
18882;DHT22;9573;50.948;11.600;2024-01-16T07:01:27;-0.40;99.90
18882;DHT22;9573;50.948;11.600;2024-01-16T07:03:54;-0.40;99.90
18882;DHT22;9573;50.948;11.600;2024-01-16T07:06:21;-0.40;99.90
18882;DHT22;9573;50.948;11.600;2024-01-16T07:08:49;-0.30;99.90
18882;DHT22;9573;50.948;11.600;2024-01-16T07:11:16;-0.40;99.90
18882;DHT22;9573;50.948;11.600;2024-01-16T07:13:43;-0.40;99.90
18882;DHT22;9573;50.948;11.600;2024-01-16T07:16:12;-0.40;99.90
18882;DHT22;9573;50.948;11.600;2024-01-16T07:18:40;-0.30;99.90
18882;DHT22;9573;50.948;11.600;2024-01-16T07:21:16;-0.30;99.90
18882;DHT22;9573;50.948;11.600;2024-01-16T07:23:44;-0.30;99.90
18882;DHT22;9573;50.948;11.600;2024-01-16T07:26:11;-0.20;99.90
18882;DHT22;9573;50.948;11.600;2024-01-16T07:28:38;-0.20;99.90
18882;DHT22;9573;50.948;11.600;2024-01-16T07:31:05;-0.20;99.90
18882;DHT22;9573;50.948;11.600;2024-01-16T07:33:34;-0.20;99.90
18882;DHT22;9573;50.948;11.600;2024-01-16T07:36:01;-0.20;99.90
18882;DHT22;9573;50.948;11.600;2024-01-16T07:38:28;-0.20;99.90
18882;DHT22;9573;50.948;11.600;2024-01-16T07:40:55;-0.10;99.90
18882;DHT22;9573;50.948;11.600;2024-01-16T07:43:23;-0.10;99.90
18882;DHT22;9573;50.948;11.600;2024-01-16T07:45:50;0.10;99.90
18882;DHT22;9573;50.948;11.600;2024-01-16T07:48:17;0.30;99.90
18882;DHT22;9573;50.948;11.600;2024-01-16T07:50:46;0.40;99.90
18882;DHT22;9573;50.948;11.600;2024-01-16T07:53:14;0.50;99.90
18882;DHT22;9573;50.948;11.600;2024-01-16T07:55:41;0.60;99.90
18882;DHT22;9573;50.948;11.600;2024-01-16T07:58:10;0.70;99.90
18882;DHT22;9573;50.948;11.600;2024-01-16T08:00:38;0.70;99.90
18882;DHT22;9573;50.948;11.600;2024-01-16T08:03:09;0.70;99.90
18882;DHT22;9573;50.948;11.600;2024-01-16T08:05:37;0.80;99.90
18882;DHT22;9573;50.948;11.600;2024-01-16T08:08:08;0.90;99.90
18882;DHT22;9573;50.948;11.600;2024-01-16T08:10:36;0.90;99.90
18882;DHT22;9573;50.948;11.600;2024-01-16T08:13:03;1.00;99.90
18882;DHT22;9573;50.948;11.600;2024-01-16T08:15:30;1.10;99.90
18882;DHT22;9573;50.948;11.600;2024-01-16T08:17:57;1.10;99.90
18882;DHT22;9573;50.948;11.600;2024-01-16T08:20:25;1.20;99.90
18882;DHT22;9573;50.948;11.600;2024-01-16T08:22:52;1.30;99.90
18882;DHT22;9573;50.948;11.600;2024-01-16T08:25:21;1.60;99.90
18882;DHT22;9573;50.948;11.600;2024-01-16T08:27:48;2.10;99.90
18882;DHT22;9573;50.948;11.600;2024-01-16T08:30:15;3.00;99.90
18882;DHT22;9573;50.948;11.600;2024-01-16T08:32:43;3.90;99.90
18882;DHT22;9573;50.948;11.600;2024-01-16T08:35:10;4.50;99.90
18882;DHT22;9573;50.948;11.600;2024-01-16T08:37:37;3.60;99.90
18882;DHT22;9573;50.948;11.600;2024-01-16T08:40:05;5.00;99.90
18882;DHT22;9573;50.948;11.600;2024-01-16T08:42:35;4.70;99.90
18882;DHT22;9573;50.948;11.600;2024-01-16T08:45:02;4.80;99.90
18882;DHT22;9573;50.948;11.600;2024-01-16T08:47:30;5.00;99.90
18882;DHT22;9573;50.948;11.600;2024-01-16T08:49:57;5.00;99.90
18882;DHT22;9573;50.948;11.600;2024-01-16T08:52:25;5.20;99.90
18882;DHT22;9573;50.948;11.600;2024-01-16T08:54:52;5.10;99.90
18882;DHT22;9573;50.948;11.600;2024-01-16T08:57:19;4.90;99.90
18882;DHT22;9573;50.948;11.600;2024-01-16T08:59:48;4.40;99.90
18882;DHT22;9573;50.948;11.600;2024-01-16T09:02:15;4.60;99.90
18882;DHT22;9573;50.948;11.600;2024-01-16T09:04:42;5.20;99.90
18882;DHT22;9573;50.948;11.600;2024-01-16T09:07:09;6.00;99.90
18882;DHT22;9573;50.948;11.600;2024-01-16T09:09:36;6.50;99.90
18882;DHT22;9573;50.948;11.600;2024-01-16T09:12:04;7.00;99.90
18882;DHT22;9573;50.948;11.600;2024-01-16T09:14:32;7.10;99.90
18882;DHT22;9573;50.948;11.600;2024-01-16T09:17:01;6.30;99.90
18882;DHT22;9573;50.948;11.600;2024-01-16T09:19:28;6.20;99.90
18882;DHT22;9573;50.948;11.600;2024-01-16T09:21:56;5.80;99.90
18882;DHT22;9573;50.948;11.600;2024-01-16T09:24:23;5.60;99.90
18882;DHT22;9573;50.948;11.600;2024-01-16T09:26:50;5.80;99.90
18882;DHT22;9573;50.948;11.600;2024-01-16T09:29:17;5.90;99.90
18882;DHT22;9573;50.948;11.600;2024-01-16T09:31:44;5.80;99.90
18882;DHT22;9573;50.948;11.600;2024-01-16T09:34:13;5.90;99.90
18882;DHT22;9573;50.948;11.600;2024-01-16T09:36:40;6.20;99.90
18882;DHT22;9573;50.948;11.600;2024-01-16T09:39:07;6.40;99.90
18882;DHT22;9573;50.948;11.600;2024-01-16T09:41:36;6.30;99.90
18882;DHT22;9573;50.948;11.600;2024-01-16T09:44:04;6.50;99.90
18882;DHT22;9573;50.948;11.600;2024-01-16T09:46:31;6.60;99.90
18882;DHT22;9573;50.948;11.600;2024-01-16T09:49:01;6.90;99.90
18882;DHT22;9573;50.948;11.600;2024-01-16T09:51:30;7.10;99.90
18882;DHT22;9573;50.948;11.600;2024-01-16T09:53:57;7.20;99.90
18882;DHT22;9573;50.948;11.600;2024-01-16T09:56:24;7.30;99.90
18882;DHT22;9573;50.948;11.600;2024-01-16T09:58:57;7.50;99.90
18882;DHT22;9573;50.948;11.600;2024-01-16T10:01:27;7.50;99.90
18882;DHT22;9573;50.948;11.600;2024-01-16T10:03:54;7.50;99.90
18882;DHT22;9573;50.948;11.600;2024-01-16T10:06:23;7.40;99.90
18882;DHT22;9573;50.948;11.600;2024-01-16T10:08:52;7.40;99.90
18882;DHT22;9573;50.948;11.600;2024-01-16T10:11:19;7.30;99.90
18882;DHT22;9573;50.948;11.600;2024-01-16T10:13:46;7.00;99.90
18882;DHT22;9573;50.948;11.600;2024-01-16T10:16:14;6.80;99.90
18882;DHT22;9573;50.948;11.600;2024-01-16T10:18:42;6.60;99.90
18882;DHT22;9573;50.948;11.600;2024-01-16T10:21:20;6.40;99.90
18882;DHT22;9573;50.948;11.600;2024-01-16T10:23:49;6.00;99.90
18882;DHT22;9573;50.948;11.600;2024-01-16T10:26:18;5.80;99.90
18882;DHT22;9573;50.948;11.600;2024-01-16T10:28:47;5.60;99.90
18882;DHT22;9573;50.948;11.600;2024-01-16T10:31:15;5.60;99.90
18882;DHT22;9573;50.948;11.600;2024-01-16T10:33:42;5.50;99.90
18882;DHT22;9573;50.948;11.600;2024-01-16T10:36:10;5.50;99.90
18882;DHT22;9573;50.948;11.600;2024-01-16T10:38:38;5.50;99.90
18882;DHT22;9573;50.948;11.600;2024-01-16T10:41:09;5.50;99.90
18882;DHT22;9573;50.948;11.600;2024-01-16T10:43:38;5.50;99.90
18882;DHT22;9573;50.948;11.600;2024-01-16T10:46:12;5.50;99.90
18882;DHT22;9573;50.948;11.600;2024-01-16T10:48:42;5.50;99.90
18882;DHT22;9573;50.948;11.600;2024-01-16T10:51:10;5.50;99.90
18882;DHT22;9573;50.948;11.600;2024-01-16T10:53:42;5.60;99.90
18882;DHT22;9573;50.948;11.600;2024-01-16T10:56:10;5.50;99.90
18882;DHT22;9573;50.948;11.600;2024-01-16T10:58:41;5.30;99.90
18882;DHT22;9573;50.948;11.600;2024-01-16T11:01:11;5.10;99.90
18882;DHT22;9573;50.948;11.600;2024-01-16T11:03:47;5.00;99.90
18882;DHT22;9573;50.948;11.600;2024-01-16T11:06:15;4.90;99.90
18882;DHT22;9573;50.948;11.600;2024-01-16T11:08:45;4.90;99.90
18882;DHT22;9573;50.948;11.600;2024-01-16T11:11:13;5.10;99.90
18882;DHT22;9573;50.948;11.600;2024-01-16T11:13:43;5.30;99.90
18882;DHT22;9573;50.948;11.600;2024-01-16T11:16:12;5.40;99.90
18882;DHT22;9573;50.948;11.600;2024-01-16T11:18:40;5.40;99.90
18882;DHT22;9573;50.948;11.600;2024-01-16T11:21:08;5.40;99.90
18882;DHT22;9573;50.948;11.600;2024-01-16T11:23:36;5.40;99.90
18882;DHT22;9573;50.948;11.600;2024-01-16T11:26:25;5.40;99.90
18882;DHT22;9573;50.948;11.600;2024-01-16T11:28:54;5.40;99.90
18882;DHT22;9573;50.948;11.600;2024-01-16T11:31:30;5.30;99.90
18882;DHT22;9573;50.948;11.600;2024-01-16T11:33:59;5.20;99.90
18882;DHT22;9573;50.948;11.600;2024-01-16T11:36:49;5.20;99.90
18882;DHT22;9573;50.948;11.600;2024-01-16T11:39:20;5.20;99.90
18882;DHT22;9573;50.948;11.600;2024-01-16T11:41:48;5.30;99.90
18882;DHT22;9573;50.948;11.600;2024-01-16T11:44:42;5.40;99.90
18882;DHT22;9573;50.948;11.600;2024-01-16T11:47:19;5.30;99.90
18882;DHT22;9573;50.948;11.600;2024-01-16T11:49:47;5.30;99.90
18882;DHT22;9573;50.948;11.600;2024-01-16T11:52:14;5.40;99.90
18882;DHT22;9573;50.948;11.600;2024-01-16T11:54:42;5.20;99.90
18882;DHT22;9573;50.948;11.600;2024-01-16T11:57:36;5.20;99.90
18882;DHT22;9573;50.948;11.600;2024-01-16T12:00:20;5.00;99.90
18882;DHT22;9573;50.948;11.600;2024-01-16T12:02:55;4.90;99.90
18882;DHT22;9573;50.948;11.600;2024-01-16T12:05:23;4.80;99.90
18882;DHT22;9573;50.948;11.600;2024-01-16T12:07:52;4.80;99.90
18882;DHT22;9573;50.948;11.600;2024-01-16T12:10:21;4.90;99.90
18882;DHT22;9573;50.948;11.600;2024-01-16T12:12:49;5.00;99.90
18882;DHT22;9573;50.948;11.600;2024-01-16T12:15:20;5.20;99.90
18882;DHT22;9573;50.948;11.600;2024-01-16T12:17:55;5.30;99.90
18882;DHT22;9573;50.948;11.600;2024-01-16T12:20:24;5.30;99.90
18882;DHT22;9573;50.948;11.600;2024-01-16T12:22:55;5.30;99.90
18882;DHT22;9573;50.948;11.600;2024-01-16T12:25:23;5.30;99.90
18882;DHT22;9573;50.948;11.600;2024-01-16T12:27:55;5.30;99.90
18882;DHT22;9573;50.948;11.600;2024-01-16T12:30:26;5.40;99.90
18882;DHT22;9573;50.948;11.600;2024-01-16T12:33:04;5.50;99.90
18882;DHT22;9573;50.948;11.600;2024-01-16T12:35:34;5.60;99.90
18882;DHT22;9573;50.948;11.600;2024-01-16T12:38:03;5.70;99.90
18882;DHT22;9573;50.948;11.600;2024-01-16T12:40:32;5.90;99.90
18882;DHT22;9573;50.948;11.600;2024-01-16T12:43:00;5.90;99.90
18882;DHT22;9573;50.948;11.600;2024-01-16T12:45:29;6.00;99.90
18882;DHT22;9573;50.948;11.600;2024-01-16T12:47:57;5.90;99.90
18882;DHT22;9573;50.948;11.600;2024-01-16T12:50:25;5.70;99.90
18882;DHT22;9573;50.948;11.600;2024-01-16T12:53:03;5.60;99.90
18882;DHT22;9573;50.948;11.600;2024-01-16T12:55:31;5.50;99.90
18882;DHT22;9573;50.948;11.600;2024-01-16T12:58:13;5.50;99.90
18882;DHT22;9573;50.948;11.600;2024-01-16T13:00:43;5.50;99.90
18882;DHT22;9573;50.948;11.600;2024-01-16T13:03:15;5.40;99.90
18882;DHT22;9573;50.948;11.600;2024-01-16T13:05:44;5.40;99.90
18882;DHT22;9573;50.948;11.600;2024-01-16T13:08:17;5.30;99.90
18882;DHT22;9573;50.948;11.600;2024-01-16T13:10:46;5.30;99.90
18882;DHT22;9573;50.948;11.600;2024-01-16T13:13:17;5.20;99.90
18882;DHT22;9573;50.948;11.600;2024-01-16T13:15:46;5.20;99.90
18882;DHT22;9573;50.948;11.600;2024-01-16T13:18:18;5.10;99.90
18882;DHT22;9573;50.948;11.600;2024-01-16T13:20:48;5.00;99.90
18882;DHT22;9573;50.948;11.600;2024-01-16T13:23:16;5.00;99.90
18882;DHT22;9573;50.948;11.600;2024-01-16T13:25:43;4.90;99.90
18882;DHT22;9573;50.948;11.600;2024-01-16T13:28:12;4.80;99.90
18882;DHT22;9573;50.948;11.600;2024-01-16T13:30:39;5.00;99.90
18882;DHT22;9573;50.948;11.600;2024-01-16T13:33:08;5.10;99.90
18882;DHT22;9573;50.948;11.600;2024-01-16T13:35:37;5.20;99.90
18882;DHT22;9573;50.948;11.600;2024-01-16T13:38:06;5.30;99.90
18882;DHT22;9573;50.948;11.600;2024-01-16T13:40:34;5.30;99.90
18882;DHT22;9573;50.948;11.600;2024-01-16T13:43:03;5.20;99.90
18882;DHT22;9573;50.948;11.600;2024-01-16T13:45:30;5.20;99.90
18882;DHT22;9573;50.948;11.600;2024-01-16T13:47:58;5.20;99.90
18882;DHT22;9573;50.948;11.600;2024-01-16T13:50:28;5.20;99.90
18882;DHT22;9573;50.948;11.600;2024-01-16T13:52:56;5.10;99.90
18882;DHT22;9573;50.948;11.600;2024-01-16T13:55:23;5.00;99.90
18882;DHT22;9573;50.948;11.600;2024-01-16T13:57:50;4.90;99.90
18882;DHT22;9573;50.948;11.600;2024-01-16T14:00:18;4.80;99.90
18882;DHT22;9573;50.948;11.600;2024-01-16T14:02:45;4.80;99.90
18882;DHT22;9573;50.948;11.600;2024-01-16T14:05:14;4.80;99.90
18882;DHT22;9573;50.948;11.600;2024-01-16T14:07:45;4.70;99.90
18882;DHT22;9573;50.948;11.600;2024-01-16T14:10:16;4.60;99.90
18882;DHT22;9573;50.948;11.600;2024-01-16T14:12:45;4.60;99.90
18882;DHT22;9573;50.948;11.600;2024-01-16T14:15:14;4.50;99.90
18882;DHT22;9573;50.948;11.600;2024-01-16T14:17:45;4.50;99.90
18882;DHT22;9573;50.948;11.600;2024-01-16T14:20:14;4.50;99.90
18882;DHT22;9573;50.948;11.600;2024-01-16T14:22:43;4.50;99.90
18882;DHT22;9573;50.948;11.600;2024-01-16T14:25:11;4.50;99.90
18882;DHT22;9573;50.948;11.600;2024-01-16T14:27:41;4.50;99.90
18882;DHT22;9573;50.948;11.600;2024-01-16T14:30:10;4.40;99.90
18882;DHT22;9573;50.948;11.600;2024-01-16T14:32:40;4.30;99.90
18882;DHT22;9573;50.948;11.600;2024-01-16T14:35:09;4.30;99.90
18882;DHT22;9573;50.948;11.600;2024-01-16T14:37:37;4.20;99.90
18882;DHT22;9573;50.948;11.600;2024-01-16T14:40:07;4.20;99.90
18882;DHT22;9573;50.948;11.600;2024-01-16T14:42:38;4.10;99.90
18882;DHT22;9573;50.948;11.600;2024-01-16T14:45:07;4.00;99.90
18882;DHT22;9573;50.948;11.600;2024-01-16T14:47:37;3.90;99.90
18882;DHT22;9573;50.948;11.600;2024-01-16T14:50:06;3.80;99.90
18882;DHT22;9573;50.948;11.600;2024-01-16T14:52:35;3.70;99.90
18882;DHT22;9573;50.948;11.600;2024-01-16T14:55:02;3.60;99.90
18882;DHT22;9573;50.948;11.600;2024-01-16T14:57:34;3.60;99.90
18882;DHT22;9573;50.948;11.600;2024-01-16T15:00:08;3.40;99.90
18882;DHT22;9573;50.948;11.600;2024-01-16T15:02:45;3.40;99.90
18882;DHT22;9573;50.948;11.600;2024-01-16T15:05:13;3.40;99.90
18882;DHT22;9573;50.948;11.600;2024-01-16T15:07:41;3.40;99.90
18882;DHT22;9573;50.948;11.600;2024-01-16T15:10:09;3.30;99.90
18882;DHT22;9573;50.948;11.600;2024-01-16T15:12:39;3.30;99.90
18882;DHT22;9573;50.948;11.600;2024-01-16T15:15:08;3.30;99.90
18882;DHT22;9573;50.948;11.600;2024-01-16T15:17:37;3.20;99.90
18882;DHT22;9573;50.948;11.600;2024-01-16T15:20:06;3.20;99.90
18882;DHT22;9573;50.948;11.600;2024-01-16T15:22:37;3.00;99.90
18882;DHT22;9573;50.948;11.600;2024-01-16T15:25:05;3.10;99.90
18882;DHT22;9573;50.948;11.600;2024-01-16T15:27:33;3.00;99.90
18882;DHT22;9573;50.948;11.600;2024-01-16T15:30:03;3.00;99.90
18882;DHT22;9573;50.948;11.600;2024-01-16T15:32:33;2.90;99.90
18882;DHT22;9573;50.948;11.600;2024-01-16T15:35:01;2.90;99.90
18882;DHT22;9573;50.948;11.600;2024-01-16T15:37:32;2.90;99.90
18882;DHT22;9573;50.948;11.600;2024-01-16T15:39:59;2.90;99.90
18882;DHT22;9573;50.948;11.600;2024-01-16T15:42:26;2.90;99.90
18882;DHT22;9573;50.948;11.600;2024-01-16T15:44:54;2.80;99.90
18882;DHT22;9573;50.948;11.600;2024-01-16T15:47:22;2.80;99.90
18882;DHT22;9573;50.948;11.600;2024-01-16T15:49:50;2.70;99.90
18882;DHT22;9573;50.948;11.600;2024-01-16T15:52:17;2.70;99.90